Terminal Aerodrome Forecast
Issued by NWS Jackson, MS

Home | Current Version | Previous Version | Text Only | Print | Product List | Glossary On
Versions: 1 2 3 4 5 6 7 8 9 10 11 12 13 14
000
FTUS44 KJAN 010500
TAFJAN
TAF
KJAN 010538Z 0106/0206 15010KT P6SM BKN120
     FM011000 16012KT P6SM VCSH BKN015 BKN025
     FM011500 19014KT P6SM -SHRA SCT015 BKN025
     FM020300 32014G24KT P6SM BKN030=

USA.gov is the U.S. government's official web portal to all federal, state and local government web resources and services.